createdAt,value
2022-11-11T00:00:50.444Z,17.08
2022-11-11T00:03:35.947Z,15.93
2022-11-11T00:06:21.278Z,16.20
2022-11-11T00:09:06.786Z,16.38
2022-11-11T00:11:52.629Z,16.33
2022-11-11T00:14:37.915Z,17.00
2022-11-11T00:17:41.982Z,15.98
2022-11-11T00:20:46.048Z,16.40
2022-11-11T00:23:50.391Z,17.08
2022-11-11T00:26:40.388Z,16.70
2022-11-11T00:29:26.287Z,16.98
2022-11-11T00:32:23.631Z,16.40
2022-11-11T00:35:28.486Z,16.90
2022-11-11T00:38:33.805Z,16.30
2022-11-11T00:41:21.204Z,16.45
2022-11-11T00:44:06.845Z,16.92
2022-11-11T00:47:10.865Z,16.60
2022-11-11T00:50:15.000Z,17.30
2022-11-11T00:53:01.021Z,17.20
2022-11-11T00:55:46.350Z,16.67
2022-11-11T00:58:31.611Z,16.65
2022-11-11T01:01:17.498Z,16.50
2022-11-11T01:04:03.495Z,17.23
2022-11-11T01:06:49.338Z,16.63
2022-11-11T01:09:34.603Z,16.52
2022-11-11T01:12:20.199Z,16.65
2022-11-11T01:15:06.347Z,17.00
2022-11-11T01:17:51.868Z,17.00
2022-11-11T01:20:38.495Z,16.70
2022-11-11T01:23:24.012Z,17.05
2022-11-11T01:26:31.637Z,16.35
2022-11-11T01:29:17.230Z,16.80
2022-11-11T01:32:02.619Z,16.13
2022-11-11T01:34:47.994Z,16.83
2022-11-11T01:37:39.167Z,16.40
2022-11-11T01:40:24.847Z,16.92
2022-11-11T01:43:13.008Z,16.38
2022-11-11T01:46:00.925Z,16.85
2022-11-11T01:49:08.191Z,16.20
2022-11-11T01:52:02.793Z,16.35
2022-11-11T01:55:08.027Z,16.90
2022-11-11T01:58:15.724Z,16.50
2022-11-11T02:01:02.679Z,16.58
2022-11-11T02:04:08.818Z,16.30
2022-11-11T02:06:58.056Z,16.20
2022-11-11T02:09:47.083Z,16.92
2022-11-11T02:12:51.415Z,16.50
2022-11-11T02:15:38.434Z,17.17
2022-11-11T02:18:24.365Z,16.83
2022-11-11T02:21:20.638Z,16.65
2022-11-11T02:24:10.152Z,16.55
2022-11-11T02:26:58.675Z,16.48
2022-11-11T02:29:48.438Z,16.77
2022-11-11T02:32:34.291Z,16.48
2022-11-11T02:35:26.024Z,16.88
2022-11-11T02:38:12.388Z,16.05
2022-11-11T02:41:16.416Z,16.65
2022-11-11T02:44:02.198Z,16.83
2022-11-11T02:46:47.328Z,16.95
2022-11-11T02:49:32.839Z,16.45
2022-11-11T02:52:17.973Z,15.98
2022-11-11T02:55:04.300Z,16.40
2022-11-11T02:57:50.170Z,16.48
2022-11-11T03:00:35.208Z,16.20
2022-11-11T03:03:20.800Z,16.15
2022-11-11T03:06:06.396Z,16.25
2022-11-11T03:08:52.029Z,16.67
2022-11-11T03:11:38.578Z,15.98
2022-11-11T03:14:24.640Z,16.30
2022-11-11T03:17:29.361Z,16.42
2022-11-11T03:20:37.196Z,16.27
2022-11-11T03:23:22.863Z,16.27
2022-11-11T03:26:09.175Z,16.80
2022-11-11T03:28:54.847Z,16.70
2022-11-11T03:31:40.381Z,16.13
2022-11-11T03:34:25.719Z,16.33
2022-11-11T03:37:31.062Z,15.85
2022-11-11T03:40:16.269Z,15.93
2022-11-11T03:43:04.964Z,15.48
2022-11-11T03:45:54.849Z,15.80
2022-11-11T03:48:40.260Z,15.90
2022-11-11T03:51:25.632Z,16.23
2022-11-11T03:54:10.904Z,16.42
2022-11-11T03:57:18.978Z,15.93
2022-11-11T04:00:12.249Z,15.88
2022-11-11T04:03:25.803Z,14.73
2022-11-11T04:06:30.110Z,16.40
2022-11-11T04:09:34.346Z,16.50
2022-11-11T04:12:19.974Z,16.10
2022-11-11T04:15:23.910Z,16.73
2022-11-11T04:18:09.519Z,16.50
2022-11-11T04:21:23.740Z,16.30
2022-11-11T04:24:43.377Z,16.27
2022-11-11T04:27:28.497Z,17.23
2022-11-11T04:30:13.686Z,16.48
2022-11-11T04:32:58.996Z,15.98
2022-11-11T04:35:49.435Z,16.25
2022-11-11T04:38:53.456Z,16.27
2022-11-11T04:42:01.752Z,16.77
2022-11-11T04:45:02.830Z,16.77
2022-11-11T04:48:10.856Z,16.60
2022-11-11T04:50:57.206Z,16.63
2022-11-11T04:53:42.537Z,16.58
2022-11-11T04:56:46.447Z,16.25
2022-11-11T04:59:31.968Z,16.50
2022-11-11T05:02:36.030Z,16.08
2022-11-11T05:05:23.148Z,16.50
2022-11-11T05:08:27.292Z,16.65
2022-11-11T05:11:12.782Z,17.60
2022-11-11T05:14:18.879Z,16.75
2022-11-11T05:17:23.255Z,17.40
2022-11-11T05:20:28.463Z,17.40
2022-11-11T05:23:13.590Z,16.20
2022-11-11T05:25:59.017Z,16.58
2022-11-11T05:28:44.475Z,17.02
2022-11-11T05:31:30.418Z,16.30
2022-11-11T05:34:15.663Z,16.45
2022-11-11T05:37:01.242Z,16.80
2022-11-11T05:39:46.783Z,16.08
2022-11-11T05:42:32.173Z,16.35
2022-11-11T05:45:17.846Z,15.93
2022-11-11T05:48:03.710Z,15.77
2022-11-11T05:50:48.895Z,15.32
2022-11-11T05:53:34.535Z,15.82
2022-11-11T05:56:20.079Z,15.20
2022-11-11T05:59:06.597Z,15.40
2022-11-11T06:01:52.134Z,15.55
2022-11-11T06:04:37.765Z,14.98
2022-11-11T06:07:23.191Z,15.70
2022-11-11T06:10:28.179Z,15.23
2022-11-11T06:13:15.104Z,14.68
2022-11-11T06:16:01.092Z,15.30
2022-11-11T06:18:46.937Z,16.92
2022-11-11T06:21:52.717Z,16.25
2022-11-11T06:24:38.108Z,16.45
2022-11-11T06:27:23.374Z,16.95
2022-11-11T06:30:38.203Z,16.05
2022-11-11T06:33:14.537Z,16.45
2022-11-11T06:35:59.973Z,15.63
2022-11-11T06:38:45.659Z,15.18
2022-11-11T06:41:31.394Z,16.33
2022-11-11T06:44:16.870Z,16.80
2022-11-11T06:47:02.216Z,17.35
2022-11-11T06:49:47.528Z,17.00
2022-11-11T06:52:33.361Z,17.55
2022-11-11T06:55:19.168Z,16.77
2022-11-11T06:58:16.418Z,17.60
2022-11-11T07:01:05.096Z,16.58
2022-11-11T07:03:50.374Z,17.23
2022-11-11T07:06:35.900Z,17.05
2022-11-11T07:09:23.495Z,16.92
2022-11-11T07:12:09.200Z,17.05
2022-11-11T07:14:54.810Z,16.77
2022-11-11T07:17:40.129Z,16.67
2022-11-11T07:20:25.453Z,16.45
2022-11-11T07:23:10.864Z,16.70
2022-11-11T07:25:56.226Z,16.98
2022-11-11T07:28:42.350Z,16.35
2022-11-11T07:31:28.027Z,16.23
2022-11-11T07:34:13.504Z,16.05
2022-11-11T07:36:59.150Z,15.60
2022-11-11T07:39:44.676Z,16.40
2022-11-11T07:42:31.863Z,16.02
2022-11-11T07:45:17.569Z,15.73
2022-11-11T07:48:03.183Z,16.05
2022-11-11T07:50:48.482Z,15.07
2022-11-11T07:53:33.756Z,14.57
2022-11-11T07:56:19.076Z,15.93
2022-11-11T07:59:04.539Z,16.30
2022-11-11T08:01:50.045Z,15.82
2022-11-11T08:04:35.450Z,15.75
2022-11-11T08:07:23.285Z,14.85
2022-11-11T08:10:10.013Z,15.88
2022-11-11T08:13:13.880Z,15.20
2022-11-11T08:15:59.019Z,14.88
2022-11-11T08:18:44.398Z,14.90
2022-11-11T08:21:29.834Z,15.50
2022-11-11T08:25:01.679Z,16.45
2022-11-11T08:27:21.849Z,17.02
2022-11-11T08:30:09.391Z,16.30
2022-11-11T08:33:32.258Z,15.88
2022-11-11T08:36:20.990Z,15.45
2022-11-11T08:39:07.537Z,16.10
2022-11-11T08:41:53.623Z,15.52
2022-11-11T08:44:39.176Z,15.75
2022-11-11T08:47:25.104Z,16.38
2022-11-11T08:50:11.100Z,16.48
2022-11-11T08:52:57.250Z,15.80
2022-11-11T08:55:42.658Z,15.75
2022-11-11T08:58:28.003Z,15.88
2022-11-11T09:01:14.821Z,15.85
2022-11-11T09:04:16.707Z,15.45
2022-11-11T09:07:07.087Z,15.40
2022-11-11T09:09:52.750Z,15.10
2022-11-11T09:12:38.146Z,15.43
2022-11-11T09:15:24.196Z,15.68
2022-11-11T09:18:10.661Z,15.48
2022-11-11T09:20:58.485Z,16.13
2022-11-11T09:23:43.794Z,16.63
2022-11-11T09:26:29.100Z,16.08
2022-11-11T09:29:14.505Z,15.27
2022-11-11T09:31:59.887Z,15.18
2022-11-11T09:34:45.277Z,15.80
2022-11-11T09:37:30.687Z,15.52
2022-11-11T09:40:21.285Z,15.27
2022-11-11T09:43:18.873Z,15.38
2022-11-11T09:46:22.507Z,15.20
2022-11-11T09:49:20.698Z,14.85
2022-11-11T09:52:18.205Z,14.43
2022-11-11T09:55:12.614Z,13.95
2022-11-11T09:58:20.745Z,14.30
2022-11-11T10:01:15.115Z,14.82
2022-11-11T10:04:06.831Z,15.02
2022-11-11T10:07:00.996Z,14.77
2022-11-11T10:10:00.589Z,14.90
2022-11-11T10:12:53.120Z,14.50
2022-11-11T10:16:05.112Z,14.30
2022-11-11T10:19:15.990Z,14.80
2022-11-11T10:22:19.965Z,14.70
2022-11-11T10:25:08.957Z,14.85
2022-11-11T10:27:59.213Z,13.98
2022-11-11T10:30:46.552Z,15.02
2022-11-11T10:33:46.639Z,14.55
2022-11-11T10:36:37.004Z,14.43
2022-11-11T10:39:32.095Z,15.20
2022-11-11T10:42:18.561Z,14.95
2022-11-11T10:45:30.333Z,14.57
2022-11-11T10:48:21.612Z,14.52
2022-11-11T10:51:07.828Z,15.07
2022-11-11T10:54:09.341Z,14.13
2022-11-11T10:57:24.879Z,14.88
2022-11-11T11:00:12.948Z,14.70
2022-11-11T11:03:13.126Z,14.30
2022-11-11T11:06:02.633Z,14.33
2022-11-11T11:08:54.533Z,14.38
2022-11-11T11:11:52.699Z,14.32
2022-11-11T11:14:43.856Z,13.95
2022-11-11T11:17:36.584Z,15.00
2022-11-11T11:20:22.357Z,13.80
2022-11-11T11:23:07.976Z,13.50
2022-11-11T11:25:55.533Z,13.30
2022-11-11T11:29:10.198Z,12.60
2022-11-11T11:31:56.314Z,13.30
2022-11-11T11:34:49.712Z,13.02
2022-11-11T11:37:50.415Z,13.73
2022-11-11T11:40:56.382Z,13.70
2022-11-11T11:43:46.060Z,13.68
2022-11-11T11:46:40.956Z,13.00
2022-11-11T11:49:38.378Z,13.32
2022-11-11T11:52:47.224Z,13.35
2022-11-11T11:55:44.102Z,13.73
2022-11-11T11:58:39.832Z,14.23
2022-11-11T12:01:57.031Z,14.02
2022-11-11T12:04:55.292Z,13.90
2022-11-11T12:08:02.570Z,14.25
2022-11-11T12:11:15.881Z,13.63
2022-11-11T12:14:22.943Z,14.27
2022-11-11T12:17:44.231Z,13.00
2022-11-11T12:21:04.404Z,12.68
2022-11-11T12:23:55.672Z,12.63
2022-11-11T12:26:47.141Z,12.75
2022-11-11T12:30:02.559Z,12.68
2022-11-11T12:33:10.164Z,12.57
2022-11-11T12:36:07.885Z,11.90
2022-11-11T12:39:46.061Z,13.20
2022-11-11T12:42:53.661Z,13.73
2022-11-11T12:45:57.208Z,13.10
2022-11-11T12:48:53.504Z,12.93
2022-11-11T12:52:08.714Z,13.57
2022-11-11T12:55:26.815Z,13.73
2022-11-11T12:58:29.716Z,13.85
2022-11-11T13:01:33.336Z,13.55
2022-11-11T13:04:45.117Z,13.18
2022-11-11T13:07:55.431Z,13.20
2022-11-11T13:10:52.398Z,13.20
2022-11-11T13:13:53.315Z,12.85
2022-11-11T13:19:33.682Z,13.23
2022-11-11T13:22:28.320Z,13.40
2022-11-11T13:25:26.368Z,13.70
2022-11-11T13:28:20.849Z,13.82
2022-11-11T13:31:09.175Z,13.73
2022-11-11T13:33:58.506Z,14.23
2022-11-11T13:36:49.029Z,13.95
2022-11-11T13:39:40.087Z,14.18
2022-11-11T13:42:31.690Z,13.75
2022-11-11T13:45:28.155Z,13.82
2022-11-11T13:48:25.021Z,13.90
2022-11-11T13:51:24.995Z,13.57
2022-11-11T13:54:33.175Z,13.02
2022-11-11T13:57:22.530Z,13.23
2022-11-11T14:00:26.614Z,13.82
2022-11-11T14:03:20.469Z,14.15
2022-11-11T14:06:15.613Z,13.60
2022-11-11T14:09:02.116Z,13.70
2022-11-11T14:11:48.310Z,14.00
2022-11-11T14:14:37.776Z,13.85
2022-11-11T14:17:51.319Z,13.88
2022-11-11T14:20:42.722Z,14.27
2022-11-11T14:23:37.326Z,14.02
2022-11-11T14:26:27.847Z,14.07
2022-11-11T14:29:20.832Z,13.60
2022-11-11T14:32:31.555Z,13.75
2022-11-11T14:35:38.623Z,14.38
2022-11-11T14:38:45.866Z,13.85
2022-11-11T14:41:52.047Z,13.60
2022-11-11T14:44:38.140Z,13.98
2022-11-11T14:47:41.518Z,13.40
2022-11-11T14:50:33.866Z,13.40
2022-11-11T14:53:25.981Z,13.40
2022-11-11T14:56:18.601Z,13.40
2022-11-11T14:59:10.393Z,13.20
2022-11-11T15:01:59.437Z,13.10
2022-11-11T15:04:45.529Z,12.93
2022-11-11T15:07:59.769Z,13.70
2022-11-11T15:11:08.273Z,13.38
2022-11-11T15:14:00.783Z,12.82
2022-11-11T15:17:24.592Z,12.02
2022-11-11T15:20:46.989Z,11.93
2022-11-11T15:23:38.100Z,12.75
2022-11-11T15:26:36.551Z,12.18
2022-11-11T15:29:40.827Z,12.30
2022-11-11T15:32:46.598Z,12.88
2022-11-11T15:35:40.620Z,12.77
2022-11-11T15:38:26.903Z,12.65
2022-11-11T15:41:24.612Z,12.25
2022-11-11T15:44:19.609Z,12.27
2022-11-11T15:47:07.186Z,11.65
2022-11-11T15:49:53.158Z,12.00
2022-11-11T15:52:39.134Z,12.45
2022-11-11T15:55:25.638Z,12.23
2022-11-11T15:58:30.981Z,11.48
2022-11-11T16:01:16.909Z,11.80
2022-11-11T16:04:22.591Z,12.00
2022-11-11T16:07:30.083Z,12.50
2022-11-11T16:10:26.873Z,12.68
2022-11-11T16:13:20.532Z,12.43
2022-11-11T16:16:23.364Z,12.45
2022-11-11T16:19:34.864Z,12.80
2022-11-11T16:22:32.965Z,12.18
2022-11-11T16:25:22.682Z,12.10
2022-11-11T16:28:12.172Z,12.70
2022-11-11T16:30:58.877Z,12.40
2022-11-11T16:33:46.543Z,12.80
2022-11-11T16:36:31.869Z,12.63
2022-11-11T16:39:21.472Z,13.00
2022-11-11T16:42:22.009Z,12.40
2022-11-11T16:45:20.604Z,12.50
2022-11-11T16:48:06.106Z,12.23
2022-11-11T16:51:05.041Z,12.18
2022-11-11T16:54:07.499Z,11.90
2022-11-11T16:56:57.359Z,12.27
2022-11-11T16:59:48.158Z,12.85
2022-11-11T17:02:34.750Z,12.10
2022-11-11T17:05:40.060Z,12.55
2022-11-11T17:08:40.577Z,12.73
2022-11-11T17:11:45.995Z,12.27
2022-11-11T17:14:36.953Z,12.27
2022-11-11T17:17:22.542Z,12.07
2022-11-11T17:20:12.595Z,12.35
2022-11-11T17:22:58.874Z,12.43
2022-11-11T17:25:44.989Z,12.02
2022-11-11T17:28:32.263Z,13.13
2022-11-11T17:31:17.409Z,13.07
2022-11-11T17:34:07.623Z,12.93
2022-11-11T17:36:53.119Z,12.57
2022-11-11T17:39:43.292Z,12.40
2022-11-11T17:42:32.768Z,12.00
2022-11-11T17:45:19.939Z,12.15
2022-11-11T17:48:08.257Z,12.30
2022-11-11T17:50:56.112Z,12.13
2022-11-11T17:53:53.216Z,12.63
2022-11-11T17:56:41.920Z,12.63
2022-11-11T17:59:27.830Z,11.70
2022-11-11T18:02:14.317Z,12.02
2022-11-11T18:05:02.068Z,12.23
2022-11-11T18:07:48.607Z,11.85
2022-11-11T18:10:34.225Z,12.50
2022-11-11T18:13:19.964Z,13.23
2022-11-11T18:16:07.294Z,12.95
2022-11-11T18:18:54.837Z,12.77
2022-11-11T18:21:42.747Z,12.68
2022-11-11T18:24:31.358Z,12.00
2022-11-11T18:27:17.523Z,12.25
2022-11-11T18:30:03.771Z,12.30
2022-11-11T18:32:50.901Z,12.50
2022-11-11T18:35:36.664Z,12.40
2022-11-11T18:38:22.747Z,12.70
2022-11-11T18:41:17.163Z,11.85
2022-11-11T18:44:03.592Z,12.98
2022-11-11T18:46:49.856Z,11.85
2022-11-11T18:49:36.164Z,12.57
2022-11-11T18:52:22.541Z,12.45
2022-11-11T18:55:09.329Z,12.50
2022-11-11T18:57:55.455Z,11.40
2022-11-11T19:00:41.581Z,9.80
2022-11-11T19:03:27.631Z,10.80
2022-11-11T19:06:13.758Z,12.45
2022-11-11T19:09:02.395Z,12.10
2022-11-11T19:11:47.901Z,12.55
2022-11-11T19:14:33.308Z,12.50
2022-11-11T19:17:18.598Z,12.40
2022-11-11T19:20:06.056Z,12.20
2022-11-11T19:22:51.364Z,12.27
2022-11-11T19:25:37.247Z,12.95
2022-11-11T19:28:22.666Z,12.18
2022-11-11T19:31:13.247Z,13.10
2022-11-11T19:33:59.087Z,12.63
2022-11-11T19:36:44.581Z,12.80
2022-11-11T19:39:29.999Z,12.68
2022-11-11T19:42:16.104Z,12.77
2022-11-11T19:45:02.752Z,12.50
2022-11-11T19:47:49.909Z,13.90
2022-11-11T19:50:35.290Z,13.00
2022-11-11T19:53:20.830Z,13.23
2022-11-11T19:56:15.197Z,13.15
2022-11-11T19:59:03.349Z,13.00
2022-11-11T20:01:48.904Z,13.32
2022-11-11T20:04:34.363Z,12.98
2022-11-11T20:07:19.739Z,13.20
2022-11-11T20:10:06.237Z,13.80
2022-11-11T20:12:52.985Z,12.38
2022-11-11T20:15:38.424Z,12.77
2022-11-11T20:18:23.929Z,12.50
2022-11-11T20:21:09.475Z,11.63
2022-11-11T20:23:55.630Z,13.73
2022-11-11T20:26:41.277Z,12.90
2022-11-11T20:29:27.178Z,12.40
2022-11-11T20:32:12.221Z,12.15
2022-11-11T20:34:57.923Z,12.05
2022-11-11T20:37:43.623Z,12.20
2022-11-11T20:40:28.978Z,12.63
2022-11-11T20:43:14.455Z,12.50
2022-11-11T20:46:03.163Z,12.35
2022-11-11T20:48:50.714Z,12.10
2022-11-11T20:51:36.267Z,12.05
2022-11-11T20:54:22.025Z,12.40
2022-11-11T20:57:07.372Z,12.05
2022-11-11T20:59:52.914Z,12.63
2022-11-11T21:02:38.195Z,12.63
2022-11-11T21:05:23.838Z,12.60
2022-11-11T21:08:09.316Z,12.60
2022-11-11T21:10:56.162Z,12.60
2022-11-11T21:13:45.832Z,12.85
2022-11-11T21:16:32.449Z,12.30
2022-11-11T21:19:18.082Z,12.70
2022-11-11T21:22:08.910Z,12.63
2022-11-11T21:24:55.974Z,12.32
2022-11-11T21:27:41.524Z,12.05
2022-11-11T21:30:26.862Z,12.48
2022-11-11T21:33:12.291Z,12.40
2022-11-11T21:36:22.226Z,11.77
2022-11-11T21:39:09.861Z,13.10
2022-11-11T21:41:55.114Z,11.88
2022-11-11T21:44:41.102Z,13.10
2022-11-11T21:47:26.580Z,13.48
2022-11-11T21:50:12.131Z,13.73
2022-11-11T21:52:57.878Z,14.77
2022-11-11T21:55:43.195Z,13.35
2022-11-11T21:58:29.279Z,13.75
2022-11-11T22:01:19.603Z,13.82
2022-11-11T22:04:08.025Z,13.00
2022-11-11T22:06:53.328Z,13.60
2022-11-11T22:09:39.229Z,13.75
2022-11-11T22:12:25.750Z,13.68
2022-11-11T22:15:11.081Z,13.23
2022-11-11T22:17:56.533Z,13.07
2022-11-11T22:20:41.794Z,12.60
2022-11-11T22:23:27.268Z,12.52
2022-11-11T22:26:12.738Z,12.40
2022-11-11T22:28:58.627Z,12.32
2022-11-11T22:31:44.888Z,12.20
2022-11-11T22:34:30.969Z,12.52
2022-11-11T22:37:19.218Z,12.05
2022-11-11T22:40:05.214Z,12.68
2022-11-11T22:42:50.498Z,12.85
2022-11-11T22:45:35.950Z,12.60
2022-11-11T22:48:21.771Z,12.98
2022-11-11T22:51:14.078Z,13.07
2022-11-11T22:54:05.099Z,13.02
2022-11-11T22:56:50.681Z,12.70
2022-11-11T22:59:36.239Z,13.00
2022-11-11T23:02:21.678Z,12.50
2022-11-11T23:05:07.297Z,12.00
2022-11-11T23:07:54.117Z,12.13
2022-11-11T23:10:39.691Z,12.80
2022-11-11T23:13:25.066Z,11.77
2022-11-11T23:16:13.145Z,12.30
2022-11-11T23:19:00.574Z,12.15
2022-11-11T23:21:46.921Z,12.50
2022-11-11T23:24:32.235Z,12.15
2022-11-11T23:27:17.832Z,12.25
2022-11-11T23:30:04.019Z,12.10
2022-11-11T23:32:53.113Z,12.60
2022-11-11T23:35:39.379Z,12.25
2022-11-11T23:38:24.977Z,12.15
2022-11-11T23:41:11.608Z,12.55
2022-11-11T23:43:58.439Z,12.10
2022-11-11T23:46:44.962Z,12.50
2022-11-11T23:49:30.703Z,12.00
2022-11-11T23:52:16.496Z,12.15
2022-11-11T23:55:02.528Z,12.85
2022-11-11T23:57:48.262Z,12.15
